sensor_id;sensor_type;location;lat;lon;timestamp;pressure;altitude;pressure_sealevel;temperature;humidity
61014;BME280;46899;47.542;19.082;2023-01-29T00:01:48;101198.69;;;0.59;100.00
61014;BME280;46899;47.542;19.082;2023-01-29T00:04:51;101199.66;;;0.64;100.00
61014;BME280;46899;47.542;19.082;2023-01-29T00:07:58;101203.88;;;0.62;100.00
61014;BME280;46899;47.542;19.082;2023-01-29T00:11:01;101205.47;;;0.54;100.00
61014;BME280;46899;47.542;19.082;2023-01-29T00:14:04;101210.63;;;0.57;100.00
61014;BME280;46899;47.542;19.082;2023-01-29T00:17:09;101209.00;;;0.60;100.00
61014;BME280;46899;47.542;19.082;2023-01-29T00:20:13;101210.69;;;0.60;100.00
61014;BME280;46899;47.542;19.082;2023-01-29T00:23:16;101207.31;;;0.61;100.00
61014;BME280;46899;47.542;19.082;2023-01-29T00:26:18;101210.69;;;0.60;100.00
61014;BME280;46899;47.542;19.082;2023-01-29T00:29:21;101221.62;;;0.51;100.00
61014;BME280;46899;47.542;19.082;2023-01-29T00:32:24;101226.59;;;0.44;100.00
61014;BME280;46899;47.542;19.082;2023-01-29T00:35:27;101223.94;;;0.39;100.00
61014;BME280;46899;47.542;19.082;2023-01-29T00:38:31;101220.31;;;0.30;100.00
61014;BME280;46899;47.542;19.082;2023-01-29T00:41:35;101228.62;;;0.20;100.00
61014;BME280;46899;47.542;19.082;2023-01-29T00:44:56;101230.22;;;0.13;100.00
61014;BME280;46899;47.542;19.082;2023-01-29T00:47:59;101237.72;;;0.06;100.00
61014;BME280;46899;47.542;19.082;2023-01-29T00:51:02;101228.91;;;-0.07;100.00
61014;BME280;46899;47.542;19.082;2023-01-29T00:54:05;101235.56;;;-0.15;100.00
61014;BME280;46899;47.542;19.082;2023-01-29T00:57:08;101231.13;;;-0.24;100.00
61014;BME280;46899;47.542;19.082;2023-01-29T01:00:13;101234.56;;;-0.22;100.00
61014;BME280;46899;47.542;19.082;2023-01-29T01:03:16;101231.91;;;-0.26;100.00
61014;BME280;46899;47.542;19.082;2023-01-29T01:06:21;101236.66;;;-0.41;100.00
61014;BME280;46899;47.542;19.082;2023-01-29T01:09:24;101234.69;;;-0.51;100.00
61014;BME280;46899;47.542;19.082;2023-01-29T01:12:45;101239.72;;;-0.56;100.00
61014;BME280;46899;47.542;19.082;2023-01-29T01:15:48;101242.16;;;-0.60;100.00
61014;BME280;46899;47.542;19.082;2023-01-29T01:18:51;101234.50;;;-0.60;100.00
61014;BME280;46899;47.542;19.082;2023-01-29T01:21:53;101240.59;;;-0.54;100.00
61014;BME280;46899;47.542;19.082;2023-01-29T01:24:56;101246.66;;;-0.52;100.00
61014;BME280;46899;47.542;19.082;2023-01-29T01:27:58;101242.25;;;-0.56;100.00
61014;BME280;46899;47.542;19.082;2023-01-29T01:31:08;101247.31;;;-0.59;100.00
61014;BME280;46899;47.542;19.082;2023-01-29T01:34:11;101250.59;;;-0.64;100.00
61014;BME280;46899;47.542;19.082;2023-01-29T01:37:14;101256.50;;;-0.65;100.00
61014;BME280;46899;47.542;19.082;2023-01-29T01:43:20;101252.19;;;-0.68;100.00
61014;BME280;46899;47.542;19.082;2023-01-29T01:46:24;101255.66;;;-0.66;100.00
61014;BME280;46899;47.542;19.082;2023-01-29T01:49:27;101257.47;;;-0.62;100.00
61014;BME280;46899;47.542;19.082;2023-01-29T01:52:29;101255.66;;;-0.66;100.00
61014;BME280;46899;47.542;19.082;2023-01-29T01:55:34;101253.03;;;-0.69;100.00
61014;BME280;46899;47.542;19.082;2023-01-29T01:58:42;101258.94;;;-0.70;100.00
61014;BME280;46899;47.542;19.082;2023-01-29T02:01:48;101253.69;;;-0.76;100.00
61014;BME280;46899;47.542;19.082;2023-01-29T02:04:52;101250.59;;;-0.64;100.00
61014;BME280;46899;47.542;19.082;2023-01-29T02:08:13;101253.13;;;-0.64;100.00
61014;BME280;46899;47.542;19.082;2023-01-29T02:11:35;101255.88;;;-0.57;100.00
61014;BME280;46899;47.542;19.082;2023-01-29T02:14:38;101262.66;;;-0.59;100.00
61014;BME280;46899;47.542;19.082;2023-01-29T02:17:41;101269.44;;;-0.59;100.00
61014;BME280;46899;47.542;19.082;2023-01-29T02:27:32;101271.72;;;-0.70;100.00
61014;BME280;46899;47.542;19.082;2023-01-29T02:30:43;101282.47;;;-0.83;100.00
61014;BME280;46899;47.542;19.082;2023-01-29T02:34:08;101279.81;;;-0.88;100.00
61014;BME280;46899;47.542;19.082;2023-01-29T02:37:13;101279.81;;;-0.86;100.00
61014;BME280;46899;47.542;19.082;2023-01-29T02:40:22;101276.88;;;-1.01;100.00
61014;BME280;46899;47.542;19.082;2023-01-29T02:46:38;101293.69;;;-1.09;100.00
61014;BME280;46899;47.542;19.082;2023-01-29T02:53:45;101298.59;;;-1.15;100.00
61014;BME280;46899;47.542;19.082;2023-01-29T02:56:39;101297.13;;;-1.09;100.00
61014;BME280;46899;47.542;19.082;2023-01-29T02:59:48;101302.25;;;-1.07;100.00
61014;BME280;46899;47.542;19.082;2023-01-29T03:06:02;101300.34;;;-1.14;100.00
61014;BME280;46899;47.542;19.082;2023-01-29T03:09:09;101304.47;;;-1.19;100.00
61014;BME280;46899;47.542;19.082;2023-01-29T03:12:17;101305.44;;;-1.16;100.00
61014;BME280;46899;47.542;19.082;2023-01-29T03:15:33;101307.06;;;-1.18;100.00
61014;BME280;46899;47.542;19.082;2023-01-29T03:18:43;101304.66;;;-1.13;100.00
61014;BME280;46899;47.542;19.082;2023-01-29T03:21:53;101300.50;;;-1.08;100.00
61014;BME280;46899;47.542;19.082;2023-01-29T03:25:00;101307.16;;;-0.84;100.00
61014;BME280;46899;47.542;19.082;2023-01-29T03:28:22;101300.69;;;-0.70;100.00
61014;BME280;46899;47.542;19.082;2023-01-29T03:31:45;101307.78;;;-0.59;100.00
61014;BME280;46899;47.542;19.082;2023-01-29T03:35:08;101308.09;;;-0.47;100.00
61014;BME280;46899;47.542;19.082;2023-01-29T03:38:11;101316.91;;;-0.35;100.00
61014;BME280;46899;47.542;19.082;2023-01-29T03:51:06;101320.03;;;-0.12;100.00
61014;BME280;46899;47.542;19.082;2023-01-29T03:54:14;101322.72;;;-0.06;100.00
61014;BME280;46899;47.542;19.082;2023-01-29T04:00:28;101316.62;;;-0.11;100.00
61014;BME280;46899;47.542;19.082;2023-01-29T04:03:41;101317.47;;;-0.12;100.00
61014;BME280;46899;47.542;19.082;2023-01-29T04:06:50;101309.81;;;-0.11;100.00
61014;BME280;46899;47.542;19.082;2023-01-29T04:10:02;101304.09;;;-0.01;100.00
61014;BME280;46899;47.542;19.082;2023-01-29T04:13:09;101303.31;;;0.04;100.00
61014;BME280;46899;47.542;19.082;2023-01-29T04:16:15;101305.88;;;0.02;100.00
61014;BME280;46899;47.542;19.082;2023-01-29T04:19:20;101310.22;;;0.06;100.00
61014;BME280;46899;47.542;19.082;2023-01-29T04:22:30;101314.63;;;0.12;100.00
61014;BME280;46899;47.542;19.082;2023-01-29T04:25:36;101318.81;;;0.10;100.00
61014;BME280;46899;47.542;19.082;2023-01-29T04:38:10;101307.13;;;0.21;100.00
61014;BME280;46899;47.542;19.082;2023-01-29T04:41:21;101316.50;;;0.20;100.00
61014;BME280;46899;47.542;19.082;2023-01-29T04:47:46;101319.09;;;0.22;100.00
61014;BME280;46899;47.542;19.082;2023-01-29T04:57:25;101314.84;;;0.24;100.00
61014;BME280;46899;47.542;19.082;2023-01-29T05:00:30;101324.16;;;0.19;100.00
61014;BME280;46899;47.542;19.082;2023-01-29T05:03:35;101316.56;;;0.23;100.00
61014;BME280;46899;47.542;19.082;2023-01-29T05:06:38;101314.13;;;0.28;100.00
61014;BME280;46899;47.542;19.082;2023-01-29T05:09:42;101318.37;;;0.29;100.00
61014;BME280;46899;47.542;19.082;2023-01-29T05:12:47;101303.72;;;0.22;100.00
61014;BME280;46899;47.542;19.082;2023-01-29T05:15:53;101307.13;;;0.21;100.00
61014;BME280;46899;47.542;19.082;2023-01-29T05:18:57;101313.25;;;0.29;100.00
61014;BME280;46899;47.542;19.082;2023-01-29T05:22:00;101310.59;;;0.23;100.00
61014;BME280;46899;47.542;19.082;2023-01-29T05:25:23;101306.34;;;0.23;100.00
61014;BME280;46899;47.542;19.082;2023-01-29T05:28:26;101309.69;;;0.21;100.00
61014;BME280;46899;47.542;19.082;2023-01-29T05:31:29;101307.84;;;0.15;100.00
61014;BME280;46899;47.542;19.082;2023-01-29T05:34:31;101302.03;;;0.21;100.00
61014;BME280;46899;47.542;19.082;2023-01-29T05:37:34;101308.00;;;0.21;100.00
61014;BME280;46899;47.542;19.082;2023-01-29T05:40:37;101303.59;;;0.16;100.00
61014;BME280;46899;47.542;19.082;2023-01-29T05:43:40;101311.37;;;0.19;100.00
61014;BME280;46899;47.542;19.082;2023-01-29T05:46:43;101303.81;;;0.25;100.00
61014;BME280;46899;47.542;19.082;2023-01-29T05:49:46;101302.94;;;0.24;100.00
61014;BME280;46899;47.542;19.082;2023-01-29T05:52:48;101319.16;;;0.25;100.00
61014;BME280;46899;47.542;19.082;2023-01-29T05:55:51;101312.31;;;0.24;100.00
61014;BME280;46899;47.542;19.082;2023-01-29T05:58:54;101311.37;;;0.20;100.00
61014;BME280;46899;47.542;19.082;2023-01-29T06:01:57;101319.94;;;0.21;100.00
61014;BME280;46899;47.542;19.082;2023-01-29T06:05:00;101326.72;;;0.20;100.00
61014;BME280;46899;47.542;19.082;2023-01-29T06:08:02;101324.16;;;0.19;100.00
61014;BME280;46899;47.542;19.082;2023-01-29T06:11:07;101318.13;;;0.17;100.00
61014;BME280;46899;47.542;19.082;2023-01-29T06:14:10;101324.84;;;0.12;100.00
61014;BME280;46899;47.542;19.082;2023-01-29T06:17:13;101330.78;;;0.11;100.00
61014;BME280;46899;47.542;19.082;2023-01-29T06:20:16;101335.00;;;0.09;100.00
61014;BME280;46899;47.542;19.082;2023-01-29T06:23:19;101345.25;;;0.10;100.00
61014;BME280;46899;47.542;19.082;2023-01-29T06:26:22;101338.56;;;0.15;100.00
61014;BME280;46899;47.542;19.082;2023-01-29T06:29:25;101344.47;;;0.13;100.00
61014;BME280;46899;47.542;19.082;2023-01-29T06:32:27;101357.34;;;0.16;100.00
61014;BME280;46899;47.542;19.082;2023-01-29T06:35:30;101356.56;;;0.20;100.00
61014;BME280;46899;47.542;19.082;2023-01-29T06:38:32;101361.69;;;0.20;100.00
61014;BME280;46899;47.542;19.082;2023-01-29T06:41:35;101372.97;;;0.28;100.00
61014;BME280;46899;47.542;19.082;2023-01-29T06:44:37;101375.44;;;0.25;100.00
61014;BME280;46899;47.542;19.082;2023-01-29T06:47:40;101378.81;;;0.24;100.00
61014;BME280;46899;47.542;19.082;2023-01-29T06:50:42;101387.47;;;0.29;100.00
61014;BME280;46899;47.542;19.082;2023-01-29T06:53:45;101384.88;;;0.26;100.00
61014;BME280;46899;47.542;19.082;2023-01-29T06:56:50;101383.22;;;0.28;100.00
61014;BME280;46899;47.542;19.082;2023-01-29T06:59:53;101383.16;;;0.26;100.00
61014;BME280;46899;47.542;19.082;2023-01-29T07:02:55;101387.53;;;0.30;100.00
61014;BME280;46899;47.542;19.082;2023-01-29T07:05:58;101378.12;;;0.29;100.00
61014;BME280;46899;47.542;19.082;2023-01-29T07:09:01;101376.53;;;0.34;100.00
61014;BME280;46899;47.542;19.082;2023-01-29T07:12:04;101374.88;;;0.38;100.00
61014;BME280;46899;47.542;19.082;2023-01-29T07:15:06;101379.13;;;0.36;100.00
61014;BME280;46899;47.542;19.082;2023-01-29T07:18:09;101376.63;;;0.39;100.00
61014;BME280;46899;47.542;19.082;2023-01-29T07:21:14;101375.66;;;0.34;100.00
61014;BME280;46899;47.542;19.082;2023-01-29T07:24:17;101373.19;;;0.38;100.00
61014;BME280;46899;47.542;19.082;2023-01-29T07:27:20;101369.84;;;0.41;100.00
61014;BME280;46899;47.542;19.082;2023-01-29T07:30:23;101365.50;;;0.37;100.00
61014;BME280;46899;47.542;19.082;2023-01-29T07:33:26;101365.59;;;0.41;100.00
61014;BME280;46899;47.542;19.082;2023-01-29T07:36:28;101362.16;;;0.39;100.00
61014;BME280;46899;47.542;19.082;2023-01-29T07:39:33;101366.41;;;0.39;100.00
61014;BME280;46899;47.542;19.082;2023-01-29T07:42:39;101351.91;;;0.39;100.00
61014;BME280;46899;47.542;19.082;2023-01-29T07:45:43;101350.41;;;0.49;100.00
61014;BME280;46899;47.542;19.082;2023-01-29T07:48:46;101335.16;;;0.55;100.00
61014;BME280;46899;47.542;19.082;2023-01-29T07:51:48;101339.78;;;0.71;100.00
61014;BME280;46899;47.542;19.082;2023-01-29T07:54:51;101354.31;;;0.72;100.00
61014;BME280;46899;47.542;19.082;2023-01-29T07:58:00;101356.78;;;0.67;100.00
61014;BME280;46899;47.542;19.082;2023-01-29T08:01:04;101358.59;;;0.73;100.00
61014;BME280;46899;47.542;19.082;2023-01-29T08:04:08;101353.53;;;0.76;100.00
61014;BME280;46899;47.542;19.082;2023-01-29T08:07:11;101362.91;;;0.74;100.00
61014;BME280;46899;47.542;19.082;2023-01-29T08:10:14;101357.84;;;0.77;100.00
61014;BME280;46899;47.542;19.082;2023-01-29T08:13:18;101364.03;;;0.88;100.00
61014;BME280;46899;47.542;19.082;2023-01-29T08:16:21;101364.19;;;0.94;100.00
61014;BME280;46899;47.542;19.082;2023-01-29T08:19:23;101363.00;;;0.79;100.00
61014;BME280;46899;47.542;19.082;2023-01-29T08:22:26;101373.81;;;0.65;100.00
61014;BME280;46899;47.542;19.082;2023-01-29T08:25:28;101376.47;;;0.70;100.00
61014;BME280;46899;47.542;19.082;2023-01-29T08:28:32;101374.81;;;0.72;100.00
61014;BME280;46899;47.542;19.082;2023-01-29T08:31:35;101383.47;;;0.77;100.00
61014;BME280;46899;47.542;19.082;2023-01-29T08:34:38;101378.44;;;0.83;100.00
61014;BME280;46899;47.542;19.082;2023-01-29T08:37:41;101386.88;;;0.78;100.00
61014;BME280;46899;47.542;19.082;2023-01-29T08:40:43;101383.38;;;0.73;100.00
61014;BME280;46899;47.542;19.082;2023-01-29T08:43:46;101389.22;;;0.68;100.00
61014;BME280;46899;47.542;19.082;2023-01-29T08:46:48;101389.37;;;0.75;100.00
61014;BME280;46899;47.542;19.082;2023-01-29T08:49:51;101397.88;;;0.74;100.00
61014;BME280;46899;47.542;19.082;2023-01-29T08:52:56;101416.37;;;0.60;100.00
61014;BME280;46899;47.542;19.082;2023-01-29T08:55:58;101421.25;;;0.50;100.00
61014;BME280;46899;47.542;19.082;2023-01-29T08:59:01;101417.78;;;0.48;100.00
61014;BME280;46899;47.542;19.082;2023-01-29T09:02:03;101422.81;;;0.43;100.00
61014;BME280;46899;47.542;19.082;2023-01-29T09:05:06;101422.00;;;0.46;100.00
61014;BME280;46899;47.542;19.082;2023-01-29T09:08:09;101418.78;;;0.54;100.00
61014;BME280;46899;47.542;19.082;2023-01-29T09:11:12;101419.03;;;0.65;100.00
61014;BME280;46899;47.542;19.082;2023-01-29T09:14:15;101418.09;;;0.61;100.00
61014;BME280;46899;47.542;19.082;2023-01-29T09:17:18;101417.53;;;0.75;100.00
61014;BME280;46899;47.542;19.082;2023-01-29T09:20:21;101418.41;;;0.75;99.44
61014;BME280;46899;47.542;19.082;2023-01-29T09:23:24;101417.56;;;0.76;98.91
61014;BME280;46899;47.542;19.082;2023-01-29T09:26:26;101429.66;;;0.82;98.79
61014;BME280;46899;47.542;19.082;2023-01-29T09:29:29;101421.28;;;0.90;99.46
61014;BME280;46899;47.542;19.082;2023-01-29T09:32:32;101427.38;;;0.95;97.87
61014;BME280;46899;47.542;19.082;2023-01-29T09:35:55;101435.22;;;1.01;97.26
61014;BME280;46899;47.542;19.082;2023-01-29T09:38:58;101431.94;;;1.08;95.75
61014;BME280;46899;47.542;19.082;2023-01-29T09:48:39;101436.47;;;1.23;95.57
61014;BME280;46899;47.542;19.082;2023-01-29T09:51:43;101442.91;;;1.03;94.78
61014;BME280;46899;47.542;19.082;2023-01-29T09:55:23;101431.59;;;0.93;94.54
61014;BME280;46899;47.542;19.082;2023-01-29T10:01:35;101436.81;;;0.96;94.17
61014;BME280;46899;47.542;19.082;2023-01-29T10:14:18;101445.06;;;1.23;90.76
61014;BME280;46899;47.542;19.082;2023-01-29T10:23:53;101443.59;;;1.36;90.36
61014;BME280;46899;47.542;19.082;2023-01-29T10:26:59;101439.56;;;1.49;90.13
61014;BME280;46899;47.542;19.082;2023-01-29T10:30:03;101434.50;;;1.52;88.28
61014;BME280;46899;47.542;19.082;2023-01-29T10:33:11;101432.59;;;1.42;89.59
61014;BME280;46899;47.542;19.082;2023-01-29T10:36:25;101434.16;;;1.33;89.10
61014;BME280;46899;47.542;19.082;2023-01-29T10:39:29;101433.50;;;1.44;88.25
61014;BME280;46899;47.542;19.082;2023-01-29T10:42:36;101435.81;;;1.31;87.64
61014;BME280;46899;47.542;19.082;2023-01-29T10:45:45;101437.44;;;1.26;90.71
61014;BME280;46899;47.542;19.082;2023-01-29T10:54:59;101434.38;;;1.04;88.83
61014;BME280;46899;47.542;19.082;2023-01-29T11:01:09;101414.03;;;1.10;88.75
61014;BME280;46899;47.542;19.082;2023-01-29T11:04:11;101404.81;;;1.19;87.62
61014;BME280;46899;47.542;19.082;2023-01-29T11:07:16;101403.06;;;1.17;87.19
61014;BME280;46899;47.542;19.082;2023-01-29T11:10:19;101403.16;;;1.21;85.96
61014;BME280;46899;47.542;19.082;2023-01-29T11:13:25;101397.94;;;1.17;85.76
61014;BME280;46899;47.542;19.082;2023-01-29T11:16:31;101399.56;;;1.13;84.96
61014;BME280;46899;47.542;19.082;2023-01-29T11:19:42;101397.84;;;1.12;86.14
61014;BME280;46899;47.542;19.082;2023-01-29T11:22:52;101383.53;;;1.23;84.01
61014;BME280;46899;47.542;19.082;2023-01-29T11:25:55;101382.31;;;1.48;82.71
61014;BME280;46899;47.542;19.082;2023-01-29T11:28:59;101377.09;;;1.44;81.39
61014;BME280;46899;47.542;19.082;2023-01-29T11:32:05;101374.22;;;1.27;81.07
61014;BME280;46899;47.542;19.082;2023-01-29T11:38:26;101361.50;;;1.31;80.18
61014;BME280;46899;47.542;19.082;2023-01-29T11:41:29;101361.28;;;1.21;80.52
61014;BME280;46899;47.542;19.082;2023-01-29T11:44:43;101355.28;;;1.20;81.04
61014;BME280;46899;47.542;19.082;2023-01-29T11:47:52;101342.78;;;1.37;80.13
61014;BME280;46899;47.542;19.082;2023-01-29T11:50:56;101338.91;;;1.60;79.12
61014;BME280;46899;47.542;19.082;2023-01-29T11:54:02;101332.09;;;1.61;76.57
61014;BME280;46899;47.542;19.082;2023-01-29T11:57:12;101325.97;;;1.53;77.87
61014;BME280;46899;47.542;19.082;2023-01-29T12:09:35;101330.47;;;1.67;74.64
61014;BME280;46899;47.542;19.082;2023-01-29T12:12:40;101336.09;;;1.47;75.23
61014;BME280;46899;47.542;19.082;2023-01-29T12:15:43;101330.97;;;1.47;75.36
61014;BME280;46899;47.542;19.082;2023-01-29T12:18:50;101327.47;;;1.42;76.14
61014;BME280;46899;47.542;19.082;2023-01-29T12:25:10;101317.50;;;1.57;74.63
61014;BME280;46899;47.542;19.082;2023-01-29T12:34:51;101316.56;;;1.53;73.69
61014;BME280;46899;47.542;19.082;2023-01-29T12:41:04;101312.28;;;1.52;74.35
61014;BME280;46899;47.542;19.082;2023-01-29T12:44:13;101316.47;;;1.46;71.86
61014;BME280;46899;47.542;19.082;2023-01-29T12:50:27;101308.75;;;1.46;72.67
61014;BME280;46899;47.542;19.082;2023-01-29T12:53:32;101306.06;;;1.39;72.83
61014;BME280;46899;47.542;19.082;2023-01-29T12:56:52;101305.91;;;1.30;73.59
61014;BME280;46899;47.542;19.082;2023-01-29T12:59:58;101303.91;;;1.14;74.64
61014;BME280;46899;47.542;19.082;2023-01-29T13:06:10;101306.47;;;1.14;73.35
61014;BME280;46899;47.542;19.082;2023-01-29T13:09:18;101291.97;;;1.15;73.95
61014;BME280;46899;47.542;19.082;2023-01-29T13:12:22;101285.81;;;1.05;74.67
61014;BME280;46899;47.542;19.082;2023-01-29T13:15:28;101280.06;;;1.17;73.72
61014;BME280;46899;47.542;19.082;2023-01-29T13:18:43;101279.56;;;1.37;73.35
61014;BME280;46899;47.542;19.082;2023-01-29T13:21:47;101269.22;;;1.33;72.81
61014;BME280;46899;47.542;19.082;2023-01-29T13:24:50;101272.59;;;1.30;73.36
61014;BME280;46899;47.542;19.082;2023-01-29T13:28:14;101254.06;;;1.45;74.03
61014;BME280;46899;47.542;19.082;2023-01-29T13:31:27;101253.25;;;1.48;73.44
61014;BME280;46899;47.542;19.082;2023-01-29T13:34:42;101252.25;;;1.39;71.58
61014;BME280;46899;47.542;19.082;2023-01-29T13:37:48;101252.72;;;1.17;71.62
61014;BME280;46899;47.542;19.082;2023-01-29T13:40:51;101257.19;;;1.29;72.23
61014;BME280;46899;47.542;19.082;2023-01-29T13:43:56;101260.44;;;1.19;71.83
61014;BME280;46899;47.542;19.082;2023-01-29T13:47:02;101271.63;;;1.22;73.70
61014;BME280;46899;47.542;19.082;2023-01-29T13:53:35;101277.84;;;0.90;73.12
61014;BME280;46899;47.542;19.082;2023-01-29T13:56:41;101263.75;;;0.68;74.16
61014;BME280;46899;47.542;19.082;2023-01-29T13:59:52;101268.84;;;0.65;74.34
61014;BME280;46899;47.542;19.082;2023-01-29T14:06:01;101260.34;;;0.68;75.47
61014;BME280;46899;47.542;19.082;2023-01-29T14:09:22;101273.00;;;0.60;74.78
61014;BME280;46899;47.542;19.082;2023-01-29T14:12:31;101271.50;;;0.70;75.30
61014;BME280;46899;47.542;19.082;2023-01-29T14:15:34;101272.78;;;0.93;74.13
61014;BME280;46899;47.542;19.082;2023-01-29T14:18:44;101269.50;;;1.00;72.76
61014;BME280;46899;47.542;19.082;2023-01-29T14:21:48;101271.50;;;1.16;73.34
61014;BME280;46899;47.542;19.082;2023-01-29T14:24:52;101279.47;;;1.31;72.86
61014;BME280;46899;47.542;19.082;2023-01-29T14:27:57;101275.88;;;1.22;72.42
61014;BME280;46899;47.542;19.082;2023-01-29T14:31:01;101281.50;;;1.03;72.28
61014;BME280;46899;47.542;19.082;2023-01-29T14:34:06;101282.69;;;0.75;73.58
61014;BME280;46899;47.542;19.082;2023-01-29T14:43:19;101268.38;;;0.04;76.79
61014;BME280;46899;47.542;19.082;2023-01-29T14:49:54;101289.94;;;-0.24;77.34
61014;BME280;46899;47.542;19.082;2023-01-29T14:59:32;101283.78;;;-0.66;80.76
61014;BME280;46899;47.542;19.082;2023-01-29T15:02:37;101287.16;;;-0.65;81.32
61014;BME280;46899;47.542;19.082;2023-01-29T15:05:41;101283.00;;;-0.62;81.02
61014;BME280;46899;47.542;19.082;2023-01-29T15:09:36;101286.56;;;-0.57;81.30
61014;BME280;46899;47.542;19.082;2023-01-29T15:12:59;101286.56;;;-0.57;81.37
61014;BME280;46899;47.542;19.082;2023-01-29T15:15:42;101283.78;;;-0.66;81.96
61014;BME280;46899;47.542;19.082;2023-01-29T15:18:46;101277.37;;;-0.83;81.81
61014;BME280;46899;47.542;19.082;2023-01-29T15:22:01;101267.63;;;-0.96;82.05
61014;BME280;46899;47.542;19.082;2023-01-29T15:25:13;101266.50;;;-1.07;83.01
61014;BME280;46899;47.542;19.082;2023-01-29T15:28:16;101261.94;;;-1.19;83.58
61014;BME280;46899;47.542;19.082;2023-01-29T15:31:26;101267.56;;;-1.30;84.44
61014;BME280;46899;47.542;19.082;2023-01-29T15:34:29;101270.00;;;-1.35;85.32
61014;BME280;46899;47.542;19.082;2023-01-29T15:37:33;101266.38;;;-1.43;84.63
61014;BME280;46899;47.542;19.082;2023-01-29T15:40:37;101268.84;;;-1.46;86.00
61014;BME280;46899;47.542;19.082;2023-01-29T15:43:44;101266.16;;;-1.51;86.73
61014;BME280;46899;47.542;19.082;2023-01-29T15:46:48;101270.31;;;-1.54;86.38
61014;BME280;46899;47.542;19.082;2023-01-29T15:49:52;101272.84;;;-1.56;86.72
61014;BME280;46899;47.542;19.082;2023-01-29T15:52:57;101278.75;;;-1.57;86.97
61014;BME280;46899;47.542;19.082;2023-01-29T15:56:01;101271.84;;;-1.61;86.94
61014;BME280;46899;47.542;19.082;2023-01-29T15:59:13;101273.41;;;-1.64;87.90
61014;BME280;46899;47.542;19.082;2023-01-29T16:02:25;101278.38;;;-1.69;88.04
61014;BME280;46899;47.542;19.082;2023-01-29T16:05:29;101274.19;;;-1.67;88.39
61014;BME280;46899;47.542;19.082;2023-01-29T16:08:35;101274.84;;;-1.74;89.44
61014;BME280;46899;47.542;19.082;2023-01-29T16:11:40;101280.03;;;-1.71;89.36
61014;BME280;46899;47.542;19.082;2023-01-29T16:14:44;101280.91;;;-1.70;89.69
61014;BME280;46899;47.542;19.082;2023-01-29T16:17:47;101280.53;;;-1.82;90.56
61014;BME280;46899;47.542;19.082;2023-01-29T16:20:52;101277.09;;;-1.84;90.18
61014;BME280;46899;47.542;19.082;2023-01-29T16:24:00;101281.31;;;-1.85;90.80
61014;BME280;46899;47.542;19.082;2023-01-29T16:27:11;101289.12;;;-1.79;89.72
61014;BME280;46899;47.542;19.082;2023-01-29T16:30:15;101291.53;;;-1.83;89.81
61014;BME280;46899;47.542;19.082;2023-01-29T16:33:19;101289.88;;;-1.83;89.76
61014;BME280;46899;47.542;19.082;2023-01-29T16:36:23;101301.87;;;-1.79;90.84
61014;BME280;46899;47.542;19.082;2023-01-29T16:39:29;101301.25;;;-1.72;90.68
61014;BME280;46899;47.542;19.082;2023-01-29T16:42:34;101304.16;;;-1.60;89.97
61014;BME280;46899;47.542;19.082;2023-01-29T16:45:39;101308.47;;;-1.57;89.86
61014;BME280;46899;47.542;19.082;2023-01-29T16:48:41;101312.81;;;-1.55;88.14
61014;BME280;46899;47.542;19.082;2023-01-29T16:51:44;101315.47;;;-1.52;87.77
61014;BME280;46899;47.542;19.082;2023-01-29T16:54:47;101307.72;;;-1.55;87.64
61014;BME280;46899;47.542;19.082;2023-01-29T16:57:51;101313.41;;;-1.63;87.82
61014;BME280;46899;47.542;19.082;2023-01-29T17:01:02;101312.50;;;-1.65;88.90
61014;BME280;46899;47.542;19.082;2023-01-29T17:04:10;101311.41;;;-1.73;88.45
61014;BME280;46899;47.542;19.082;2023-01-29T17:07:15;101317.19;;;-1.79;89.05
61014;BME280;46899;47.542;19.082;2023-01-29T17:10:23;101312.78;;;-1.84;89.21
61014;BME280;46899;47.542;19.082;2023-01-29T17:13:37;101310.91;;;-1.90;89.84
61014;BME280;46899;47.542;19.082;2023-01-29T17:16:49;101311.75;;;-1.91;90.85
61014;BME280;46899;47.542;19.082;2023-01-29T17:19:52;101310.59;;;-2.00;91.86
61014;BME280;46899;47.542;19.082;2023-01-29T17:22:55;101307.09;;;-2.02;92.67
61014;BME280;46899;47.542;19.082;2023-01-29T17:25:58;101299.31;;;-2.07;91.51
61014;BME280;46899;47.542;19.082;2023-01-29T17:29:01;101289.94;;;-2.08;92.36
61014;BME280;46899;47.542;19.082;2023-01-29T17:32:04;101294.00;;;-2.15;93.21
61014;BME280;46899;47.542;19.082;2023-01-29T17:35:07;101292.13;;;-2.20;93.59
61014;BME280;46899;47.542;19.082;2023-01-29T17:38:11;101284.34;;;-2.25;94.06
61014;BME280;46899;47.542;19.082;2023-01-29T17:41:27;101271.56;;;-2.26;94.02
61014;BME280;46899;47.542;19.082;2023-01-29T17:44:31;101277.22;;;-2.35;95.19
61014;BME280;46899;47.542;19.082;2023-01-29T17:47:34;101272.19;;;-2.33;94.64
61014;BME280;46899;47.542;19.082;2023-01-29T17:50:37;101277.31;;;-2.32;95.23
61014;BME280;46899;47.542;19.082;2023-01-29T17:53:44;101271.06;;;-2.41;95.55
61014;BME280;46899;47.542;19.082;2023-01-29T17:56:48;101266.16;;;-2.35;95.19
61014;BME280;46899;47.542;19.082;2023-01-29T17:59:51;101253.13;;;-2.44;95.30
61014;BME280;46899;47.542;19.082;2023-01-29T18:02:54;101260.00;;;-2.42;95.60
61014;BME280;46899;47.542;19.082;2023-01-29T18:05:59;101253.84;;;-2.48;95.25
61014;BME280;46899;47.542;19.082;2023-01-29T18:09:02;101257.88;;;-2.55;95.67
61014;BME280;46899;47.542;19.082;2023-01-29T18:12:07;101263.84;;;-2.54;96.21
61014;BME280;46899;47.542;19.082;2023-01-29T18:15:11;101263.75;;;-2.57;96.47
61014;BME280;46899;47.542;19.082;2023-01-29T18:18:17;101264.56;;;-2.58;96.31
61014;BME280;46899;47.542;19.082;2023-01-29T18:21:20;101260.22;;;-2.61;96.16